createdAt,value
2017-08-06T00:01:13.348Z,99.20
2017-08-06T00:03:41.626Z,99.00
2017-08-06T00:06:09.916Z,99.10
2017-08-06T00:08:39.324Z,99.00
2017-08-06T00:11:08.742Z,99.00
2017-08-06T00:13:37.045Z,98.90
2017-08-06T00:16:05.399Z,98.80
2017-08-06T00:18:34.175Z,98.70
2017-08-06T00:21:03.603Z,98.70
2017-08-06T00:23:32.695Z,99.00
2017-08-06T00:26:01.735Z,98.80
2017-08-06T00:28:30.004Z,98.60
2017-08-06T00:30:58.352Z,98.50
2017-08-06T00:33:26.622Z,98.40
2017-08-06T00:35:54.895Z,98.20
2017-08-06T00:38:23.239Z,98.20
2017-08-06T00:40:51.516Z,98.10
2017-08-06T00:43:20.194Z,98.20
2017-08-06T00:45:50.001Z,98.30
2017-08-06T00:48:18.679Z,98.10
2017-08-06T00:50:48.460Z,98.10
2017-08-06T00:53:16.802Z,97.80
2017-08-06T00:55:45.075Z,97.30
2017-08-06T00:58:13.350Z,97.60
2017-08-06T01:03:11.181Z,97.80
2017-08-06T01:05:39.466Z,98.10
2017-08-06T01:08:08.712Z,98.40
2017-08-06T01:10:37.763Z,98.30
2017-08-06T01:13:06.056Z,98.30
2017-08-06T01:15:34.536Z,98.30
2017-08-06T01:18:02.891Z,98.10
2017-08-06T01:20:31.158Z,98.00
2017-08-06T01:23:00.273Z,98.30
2017-08-06T01:25:29.313Z,97.80
2017-08-06T01:27:58.358Z,97.60
2017-08-06T01:30:26.985Z,98.10
2017-08-06T01:32:56.403Z,98.30
2017-08-06T01:35:24.680Z,98.90
2017-08-06T01:37:53.024Z,98.80
2017-08-06T01:40:21.322Z,98.80
2017-08-06T01:42:49.601Z,98.90
2017-08-06T01:45:18.078Z,98.80
2017-08-06T01:47:47.132Z,98.80
2017-08-06T01:50:15.434Z,98.60
2017-08-06T01:55:14.050Z,98.90
2017-08-06T01:57:42.326Z,99.20
2017-08-06T02:00:10.687Z,99.40
2017-08-06T02:05:08.886Z,99.90
2017-08-06T02:07:38.684Z,99.90
2017-08-06T02:10:07.362Z,99.90
2017-08-06T02:15:11.094Z,99.70
2017-08-06T02:17:40.515Z,99.70
2017-08-06T02:20:08.802Z,99.90
2017-08-06T02:22:37.134Z,99.90
2017-08-06T02:25:05.446Z,99.90
2017-08-06T02:27:33.767Z,99.80
2017-08-06T02:30:03.427Z,99.90
2017-08-06T02:32:31.710Z,99.90
2017-08-06T02:35:00.386Z,99.90
2017-08-06T02:37:29.876Z,99.90
2017-08-06T02:42:28.583Z,99.90
2017-08-06T02:44:56.911Z,99.90
2017-08-06T02:49:55.099Z,99.90
2017-08-06T02:52:24.191Z,99.90
2017-08-06T02:54:52.483Z,99.90
2017-08-06T02:57:20.791Z,99.90
2017-08-06T02:59:50.642Z,99.90
2017-08-06T03:02:18.936Z,99.90
2017-08-06T03:04:47.243Z,99.90
2017-08-06T03:07:15.618Z,99.90
2017-08-06T03:09:45.053Z,99.90
2017-08-06T03:12:13.339Z,99.90
2017-08-06T03:14:41.677Z,99.90
2017-08-06T03:17:09.958Z,99.90
2017-08-06T03:19:39.754Z,99.90
2017-08-06T03:24:38.387Z,99.90
2017-08-06T03:27:06.686Z,99.90
2017-08-06T03:29:35.810Z,99.90
2017-08-06T03:32:04.122Z,99.90
2017-08-06T03:34:32.415Z,99.90
2017-08-06T03:37:02.250Z,99.90
2017-08-06T03:42:00.454Z,99.90
2017-08-06T03:44:30.319Z,99.90
2017-08-06T03:46:58.602Z,99.90
2017-08-06T03:49:27.658Z,99.90
2017-08-06T03:51:56.019Z,99.90
2017-08-06T03:54:25.070Z,99.90
2017-08-06T03:56:53.355Z,99.90
2017-08-06T03:59:22.726Z,99.90
2017-08-06T04:01:51.904Z,99.90
2017-08-06T04:04:20.212Z,99.90
2017-08-06T04:06:49.994Z,99.90
2017-08-06T04:09:18.308Z,99.90
2017-08-06T04:11:46.606Z,99.90
2017-08-06T04:14:14.942Z,99.90
2017-08-06T04:16:43.994Z,99.90
2017-08-06T04:21:42.242Z,99.90
2017-08-06T04:26:40.430Z,99.90
2017-08-06T04:29:08.788Z,99.90
2017-08-06T04:31:37.086Z,99.90
2017-08-06T04:34:05.385Z,99.90
2017-08-06T04:36:35.362Z,99.90
2017-08-06T04:39:03.647Z,99.90
2017-08-06T04:44:01.887Z,99.90
2017-08-06T04:46:30.567Z,99.90
2017-08-06T04:48:59.247Z,99.90
2017-08-06T04:51:27.578Z,99.90
2017-08-06T04:53:55.867Z,99.90
2017-08-06T04:56:25.661Z,99.90
2017-08-06T04:58:54.146Z,99.90
2017-08-06T05:03:51.939Z,99.90
2017-08-06T05:06:20.579Z,99.90
2017-08-06T05:08:48.883Z,99.90
2017-08-06T05:11:17.196Z,99.90
2017-08-06T05:13:47.014Z,99.90
2017-08-06T05:16:15.300Z,99.90
2017-08-06T05:18:43.580Z,99.90
2017-08-06T05:21:11.906Z,99.90
2017-08-06T05:23:41.331Z,99.90
2017-08-06T05:26:09.623Z,99.90
2017-08-06T05:28:39.373Z,99.90
2017-08-06T05:31:08.058Z,99.90
2017-08-06T05:33:36.354Z,99.90
2017-08-06T05:36:05.629Z,99.90
2017-08-06T05:38:33.932Z,99.90
2017-08-06T05:41:02.228Z,99.90
2017-08-06T05:43:31.694Z,99.90
2017-08-06T05:45:59.979Z,99.90
2017-08-06T05:48:28.266Z,99.90
2017-08-06T05:50:58.230Z,99.90
2017-08-06T05:53:26.520Z,99.90
2017-08-06T05:55:55.194Z,99.90
2017-08-06T05:58:24.750Z,99.90
2017-08-06T06:00:53.046Z,99.90
2017-08-06T06:05:52.107Z,99.90
2017-08-06T06:08:21.546Z,99.90
2017-08-06T06:10:49.834Z,99.90
2017-08-06T06:18:21.282Z,99.90
2017-08-06T06:20:49.591Z,99.90
2017-08-06T06:23:19.427Z,99.90
2017-08-06T06:25:47.775Z,99.90
2017-08-06T06:28:16.112Z,99.90
2017-08-06T06:30:45.963Z,99.90
2017-08-06T06:33:14.300Z,99.90
2017-08-06T06:35:42.578Z,99.90
2017-08-06T06:38:10.894Z,99.90
2017-08-06T06:40:40.715Z,99.90
2017-08-06T06:43:09.000Z,99.90
2017-08-06T06:45:37.318Z,99.90
2017-08-06T06:50:35.912Z,99.80
2017-08-06T06:53:05.022Z,99.90
2017-08-06T06:55:34.102Z,98.90
2017-08-06T06:58:02.392Z,98.70
2017-08-06T07:00:31.481Z,98.30
2017-08-06T07:03:01.299Z,98.70
2017-08-06T07:05:29.588Z,98.20
2017-08-06T07:07:57.911Z,97.30
2017-08-06T07:10:27.726Z,97.10
2017-08-06T07:12:56.018Z,96.60
2017-08-06T07:15:24.343Z,96.30
2017-08-06T07:17:52.671Z,95.40
2017-08-06T07:20:20.977Z,95.70
2017-08-06T07:22:49.279Z,96.40
2017-08-06T07:25:17.659Z,94.80
2017-08-06T07:27:47.112Z,94.40
2017-08-06T07:30:15.411Z,93.90
2017-08-06T07:32:43.907Z,94.20
2017-08-06T07:35:12.958Z,93.40
2017-08-06T07:40:11.542Z,92.20
2017-08-06T07:42:40.967Z,91.90
2017-08-06T07:45:09.254Z,92.10
2017-08-06T07:47:37.730Z,92.60
2017-08-06T07:50:06.046Z,93.40
2017-08-06T07:52:34.348Z,92.80
2017-08-06T07:55:02.686Z,92.00
2017-08-06T07:57:31.731Z,91.70
2017-08-06T08:00:00.780Z,90.60
2017-08-06T08:02:29.130Z,91.20
2017-08-06T08:04:58.555Z,90.00
2017-08-06T08:07:27.234Z,89.20
2017-08-06T08:09:55.683Z,88.40
2017-08-06T08:14:54.611Z,84.40
2017-08-06T08:17:23.797Z,87.00
2017-08-06T08:19:52.835Z,84.60
2017-08-06T08:24:51.371Z,87.40
2017-08-06T08:27:19.676Z,86.40
2017-08-06T08:29:47.986Z,83.00
2017-08-06T08:32:17.476Z,82.30
2017-08-06T08:34:45.754Z,85.10
2017-08-06T08:37:14.043Z,83.70
2017-08-06T08:39:42.846Z,81.10
2017-08-06T08:42:11.880Z,80.90
2017-08-06T08:44:40.159Z,77.50
2017-08-06T08:47:09.263Z,76.30
2017-08-06T08:49:38.675Z,73.30
2017-08-06T08:52:06.951Z,74.70
2017-08-06T08:54:35.866Z,76.70
2017-08-06T08:57:06.440Z,76.00
2017-08-06T08:59:34.760Z,71.20
2017-08-06T09:02:03.082Z,69.60
2017-08-06T09:04:32.121Z,66.10
2017-08-06T09:09:31.091Z,71.70
2017-08-06T09:11:59.357Z,69.70
2017-08-06T09:14:27.663Z,70.40
2017-08-06T09:16:55.979Z,68.70
2017-08-06T09:19:24.251Z,68.20
2017-08-06T09:24:22.458Z,69.60
2017-08-06T09:26:50.761Z,69.60
2017-08-06T09:29:19.070Z,68.10
2017-08-06T09:31:48.916Z,66.10
2017-08-06T09:34:17.211Z,60.90
2017-08-06T09:36:45.488Z,58.70
2017-08-06T09:39:14.594Z,56.90
2017-08-06T09:44:12.767Z,60.80
2017-08-06T09:46:41.411Z,62.00
2017-08-06T09:49:10.822Z,57.70
2017-08-06T09:51:39.099Z,57.10
2017-08-06T09:54:07.726Z,56.90
2017-08-06T09:56:37.144Z,54.40
2017-08-06T10:01:35.791Z,54.40
2017-08-06T10:04:05.073Z,52.80
2017-08-06T10:06:33.781Z,50.90
2017-08-06T10:09:02.093Z,51.40
2017-08-06T10:11:30.358Z,52.60
2017-08-06T10:16:28.603Z,50.20
2017-08-06T10:18:56.870Z,51.40
2017-08-06T10:21:25.590Z,50.00
2017-08-06T10:23:54.267Z,54.10
2017-08-06T10:26:22.551Z,51.20
2017-08-06T10:28:52.458Z,49.90
2017-08-06T10:31:20.753Z,46.40
2017-08-06T10:33:49.051Z,47.40
2017-08-06T10:36:17.375Z,47.40
2017-08-06T10:38:45.655Z,53.30
2017-08-06T10:41:13.941Z,47.60
2017-08-06T10:43:42.278Z,50.20
2017-08-06T10:46:11.323Z,49.10
2017-08-06T10:48:39.599Z,50.10
2017-08-06T10:51:07.939Z,51.00
2017-08-06T10:53:36.614Z,53.80
2017-08-06T10:58:34.851Z,43.00
2017-08-06T11:01:03.902Z,43.00
2017-08-06T11:06:03.584Z,46.80
2017-08-06T11:08:32.254Z,46.90
2017-08-06T11:11:00.522Z,45.30
2017-08-06T11:15:58.735Z,49.10
2017-08-06T11:18:27.010Z,50.20
2017-08-06T11:20:55.355Z,49.50
2017-08-06T11:23:23.631Z,50.40
2017-08-06T11:25:52.301Z,50.80
2017-08-06T11:28:21.783Z,50.80
2017-08-06T11:30:50.077Z,49.10
2017-08-06T11:33:18.356Z,49.20
2017-08-06T11:35:48.190Z,49.50
2017-08-06T11:38:16.487Z,55.90
2017-08-06T11:40:44.751Z,57.40
2017-08-06T11:43:13.862Z,53.50
2017-08-06T11:48:12.047Z,49.90
2017-08-06T11:53:10.546Z,48.50
2017-08-06T11:55:38.824Z,49.40
2017-08-06T11:58:07.158Z,49.10
2017-08-06T12:00:36.566Z,47.20
2017-08-06T12:03:04.842Z,45.90
2017-08-06T12:05:33.820Z,47.80
2017-08-06T12:08:03.599Z,50.60
2017-08-06T12:10:31.867Z,48.80
2017-08-06T12:13:00.195Z,42.80
2017-08-06T12:15:29.978Z,43.20
2017-08-06T12:17:58.258Z,43.00
2017-08-06T12:20:27.382Z,44.30
2017-08-06T12:22:56.419Z,43.00
2017-08-06T12:25:24.730Z,42.60
2017-08-06T12:30:24.050Z,46.00
2017-08-06T12:32:52.322Z,48.20
2017-08-06T12:35:20.668Z,46.60
2017-08-06T12:37:50.469Z,45.40
2017-08-06T12:40:18.762Z,42.90
2017-08-06T12:42:47.187Z,43.80
2017-08-06T12:45:15.482Z,42.60
2017-08-06T12:47:43.755Z,45.20
2017-08-06T12:50:13.498Z,42.50
2017-08-06T12:52:41.769Z,46.60
2017-08-06T12:55:10.043Z,45.60
2017-08-06T12:57:38.362Z,45.70
2017-08-06T13:00:06.648Z,42.10
2017-08-06T13:02:36.438Z,40.60
2017-08-06T13:05:04.800Z,41.30
2017-08-06T13:07:34.602Z,43.50
2017-08-06T13:10:02.882Z,43.30
2017-08-06T13:12:32.398Z,41.20
2017-08-06T13:15:02.182Z,41.30
2017-08-06T13:17:30.460Z,40.80
2017-08-06T13:19:58.795Z,42.30
2017-08-06T13:22:28.583Z,42.20
2017-08-06T13:24:58.390Z,41.20
2017-08-06T13:27:26.706Z,40.20
2017-08-06T13:29:55.747Z,39.70
2017-08-06T13:32:24.778Z,41.70
2017-08-06T13:34:53.491Z,42.60
2017-08-06T13:37:21.779Z,39.50
2017-08-06T13:39:50.063Z,40.00
2017-08-06T13:42:19.919Z,42.60
2017-08-06T13:44:48.199Z,41.50
2017-08-06T13:47:16.482Z,40.80
2017-08-06T13:49:45.568Z,43.10
2017-08-06T13:54:43.735Z,42.90
2017-08-06T13:59:41.955Z,43.20
2017-08-06T14:02:10.226Z,43.60
2017-08-06T14:04:38.910Z,44.20
2017-08-06T14:09:36.734Z,45.00
2017-08-06T14:12:05.099Z,46.20
2017-08-06T14:14:33.367Z,45.20
2017-08-06T14:19:31.576Z,46.00
2017-08-06T14:22:00.238Z,47.70
2017-08-06T14:24:30.018Z,47.60
2017-08-06T14:29:28.239Z,47.80
2017-08-06T14:31:56.518Z,46.50
2017-08-06T14:34:25.612Z,46.50
2017-08-06T14:36:53.886Z,47.80
2017-08-06T14:39:23.694Z,46.80
2017-08-06T14:41:52.060Z,48.00
2017-08-06T14:46:50.257Z,51.50
2017-08-06T14:49:18.577Z,50.30
2017-08-06T14:51:46.888Z,49.00
2017-08-06T14:54:15.158Z,49.20
2017-08-06T14:56:43.863Z,50.00
2017-08-06T14:59:13.274Z,49.90
2017-08-06T15:01:41.547Z,51.10
2017-08-06T15:04:10.183Z,49.40
2017-08-06T15:06:39.970Z,52.10
2017-08-06T15:11:38.190Z,53.00
2017-08-06T15:14:06.488Z,52.40
2017-08-06T15:16:35.542Z,51.00
2017-08-06T15:19:03.882Z,53.30
2017-08-06T15:21:32.164Z,52.50
2017-08-06T15:24:00.434Z,52.30
2017-08-06T15:26:28.750Z,53.20
2017-08-06T15:28:58.154Z,51.90
2017-08-06T15:31:26.830Z,51.80
2017-08-06T15:33:55.174Z,54.30
2017-08-06T15:36:24.587Z,54.60
2017-08-06T15:38:52.862Z,54.30
2017-08-06T15:43:51.268Z,52.90
2017-08-06T15:46:19.558Z,54.00
2017-08-06T15:48:48.147Z,52.80
2017-08-06T15:51:17.190Z,52.60
2017-08-06T15:53:46.238Z,52.70
2017-08-06T15:58:45.594Z,52.20
2017-08-06T16:01:13.862Z,51.00
2017-08-06T16:03:43.702Z,51.70
2017-08-06T16:08:41.874Z,53.90
2017-08-06T16:11:10.199Z,51.00
2017-08-06T16:13:38.867Z,49.70
2017-08-06T16:16:07.154Z,51.00
2017-08-06T16:18:36.624Z,52.10
2017-08-06T16:23:34.828Z,51.20
2017-08-06T16:26:03.168Z,51.90
2017-08-06T16:31:00.938Z,51.50
2017-08-06T16:33:30.403Z,52.70
2017-08-06T16:35:59.074Z,50.00
2017-08-06T16:40:57.290Z,50.50
2017-08-06T16:43:25.562Z,49.30
2017-08-06T16:45:53.835Z,50.40
2017-08-06T16:48:22.185Z,49.00
2017-08-06T16:50:50.475Z,48.90
2017-08-06T16:55:48.340Z,49.20
2017-08-06T16:58:18.144Z,50.30
2017-08-06T17:00:46.463Z,54.20
2017-08-06T17:03:14.798Z,53.00
2017-08-06T17:05:43.075Z,51.80
2017-08-06T17:08:11.351Z,48.70
2017-08-06T17:10:39.681Z,49.30
2017-08-06T17:13:09.471Z,50.00
2017-08-06T17:15:37.743Z,51.90
2017-08-06T17:20:37.142Z,54.20
2017-08-06T17:23:05.427Z,53.80
2017-08-06T17:25:33.748Z,51.50
2017-08-06T17:28:02.027Z,52.20
2017-08-06T17:30:30.303Z,54.10
2017-08-06T17:32:59.764Z,52.80
2017-08-06T17:35:28.030Z,54.50
2017-08-06T17:37:56.314Z,53.70
2017-08-06T17:40:24.688Z,52.80
2017-08-06T17:42:52.978Z,53.50
2017-08-06T17:47:50.840Z,54.80
2017-08-06T17:50:19.146Z,54.40
2017-08-06T17:52:47.442Z,53.70
2017-08-06T17:57:45.674Z,56.50
2017-08-06T18:05:13.007Z,54.00
2017-08-06T18:07:41.277Z,53.40
2017-08-06T18:12:39.531Z,58.40
2017-08-06T18:15:07.807Z,56.00
2017-08-06T18:17:36.499Z,55.90
2017-08-06T18:20:04.768Z,57.80
2017-08-06T18:22:34.179Z,58.80
2017-08-06T18:25:02.532Z,59.80
2017-08-06T18:27:30.815Z,61.10
2017-08-06T18:29:59.093Z,60.10
2017-08-06T18:32:27.418Z,61.40
2017-08-06T18:34:57.192Z,63.50
2017-08-06T18:39:56.542Z,66.10
2017-08-06T18:45:01.127Z,67.40
2017-08-06T18:49:59.302Z,67.90
2017-08-06T18:52:27.922Z,69.00
2017-08-06T18:54:57.334Z,67.70
2017-08-06T19:00:01.682Z,69.30
2017-08-06T19:02:29.954Z,69.90
2017-08-06T19:04:58.275Z,70.60
2017-08-06T19:07:26.919Z,70.60
2017-08-06T19:09:56.342Z,71.50
2017-08-06T19:12:24.651Z,72.60
2017-08-06T19:14:53.389Z,72.70
2017-08-06T19:17:23.196Z,72.00
2017-08-06T19:22:22.626Z,73.50
2017-08-06T19:27:20.840Z,73.90
2017-08-06T19:29:49.184Z,74.60
2017-08-06T19:32:17.498Z,74.90
2017-08-06T19:34:45.778Z,74.70
2017-08-06T19:37:15.269Z,74.90
2017-08-06T19:39:44.316Z,75.60
2017-08-06T19:42:13.359Z,75.10
2017-08-06T19:44:41.711Z,76.40
2017-08-06T19:47:09.982Z,76.90
2017-08-06T19:49:38.259Z,76.80
2017-08-06T19:54:36.850Z,77.20
2017-08-06T19:57:05.127Z,79.40
2017-08-06T20:09:32.770Z,81.90
2017-08-06T20:12:01.055Z,81.00
2017-08-06T20:14:30.907Z,83.00
2017-08-06T20:16:59.184Z,82.10
2017-08-06T20:19:27.462Z,82.80
2017-08-06T20:21:55.824Z,85.40
2017-08-06T20:24:24.123Z,84.50
2017-08-06T20:26:52.447Z,84.50
2017-08-06T20:29:20.792Z,86.50
2017-08-06T20:31:50.216Z,86.60
2017-08-06T20:36:48.070Z,86.30
2017-08-06T20:41:47.066Z,85.80
2017-08-06T20:46:46.425Z,86.80
2017-08-06T20:49:14.905Z,87.70
2017-08-06T20:51:44.701Z,87.50
2017-08-06T20:56:43.254Z,87.20
2017-08-06T20:59:11.544Z,88.50
2017-08-06T21:01:39.819Z,87.40
2017-08-06T21:04:08.135Z,86.90
2017-08-06T21:09:06.267Z,87.90
2017-08-06T21:11:34.993Z,89.90
2017-08-06T21:14:04.029Z,89.50
2017-08-06T21:16:32.306Z,89.30
2017-08-06T21:19:00.623Z,90.20
2017-08-06T21:21:28.899Z,90.00
2017-08-06T21:23:57.938Z,90.60
2017-08-06T21:26:26.258Z,90.90
2017-08-06T21:28:54.535Z,91.10
2017-08-06T21:31:24.314Z,91.70
2017-08-06T21:33:52.652Z,91.80
2017-08-06T21:36:20.941Z,91.30
2017-08-06T21:38:49.240Z,91.50
2017-08-06T21:41:17.580Z,91.80
2017-08-06T21:43:45.852Z,91.60
2017-08-06T21:46:14.128Z,91.70
2017-08-06T21:48:43.227Z,92.20
2017-08-06T21:51:11.498Z,92.20
2017-08-06T21:53:39.773Z,92.60
2017-08-06T21:56:08.091Z,92.80
2017-08-06T21:58:36.388Z,93.10
2017-08-06T22:01:04.672Z,93.30
2017-08-06T22:03:33.782Z,93.20
2017-08-06T22:06:02.059Z,93.20
2017-08-06T22:08:30.335Z,93.50
2017-08-06T22:11:00.181Z,93.40
2017-08-06T22:13:28.462Z,93.10
2017-08-06T22:18:26.679Z,93.30
2017-08-06T22:20:54.954Z,93.10
2017-08-06T22:23:23.230Z,93.40
2017-08-06T22:25:51.934Z,93.30
2017-08-06T22:28:20.990Z,93.80
2017-08-06T22:33:19.600Z,93.10
2017-08-06T22:35:47.887Z,92.90
2017-08-06T22:43:16.407Z,93.80
2017-08-06T22:45:45.849Z,93.60
2017-08-06T22:48:14.162Z,93.40
2017-08-06T22:50:43.198Z,94.20
2017-08-06T22:53:12.235Z,94.40
2017-08-06T22:55:40.553Z,94.40
2017-08-06T22:58:08.822Z,94.70
2017-08-06T23:00:37.099Z,94.60
2017-08-06T23:03:05.448Z,94.50
2017-08-06T23:05:34.503Z,94.20
2017-08-06T23:08:02.783Z,94.40
2017-08-06T23:10:32.083Z,94.10
2017-08-06T23:13:01.859Z,94.20
2017-08-06T23:15:30.130Z,94.40
2017-08-06T23:17:59.704Z,94.80
2017-08-06T23:20:27.984Z,94.80
2017-08-06T23:22:57.405Z,94.70
2017-08-06T23:25:26.482Z,94.60
2017-08-06T23:27:54.757Z,94.80
2017-08-06T23:30:23.035Z,94.80
2017-08-06T23:32:51.769Z,94.60
2017-08-06T23:37:49.951Z,94.40
2017-08-06T23:40:18.319Z,94.30
2017-08-06T23:42:46.622Z,94.30
2017-08-06T23:45:14.898Z,93.90
2017-08-06T23:47:43.227Z,94.10
2017-08-06T23:50:11.502Z,94.00
2017-08-06T23:52:39.786Z,94.00
2017-08-06T23:55:09.251Z,94.30
2017-08-06T23:57:37.532Z,94.10
